createdAt,value
2018-05-23T00:00:12.384Z,14.27
2018-05-23T00:02:39.517Z,14.40
2018-05-23T00:05:05.724Z,12.27
2018-05-23T00:07:34.768Z,14.10
2018-05-23T00:10:01.444Z,13.50
2018-05-23T00:12:27.696Z,16.33
2018-05-23T00:14:53.901Z,14.40
2018-05-23T00:17:20.148Z,14.83
2018-05-23T00:19:46.373Z,15.67
2018-05-23T00:22:12.584Z,15.13
2018-05-23T00:24:38.860Z,16.17
2018-05-23T00:27:05.072Z,16.40
2018-05-23T00:29:31.305Z,15.43
2018-05-23T00:31:57.541Z,14.17
2018-05-23T00:34:23.770Z,15.53
2018-05-23T00:36:49.975Z,15.50
2018-05-23T00:39:16.223Z,16.87
2018-05-23T00:41:42.451Z,16.37
2018-05-23T00:44:08.687Z,15.43
2018-05-23T00:46:34.919Z,17.50
2018-05-23T00:49:01.142Z,18.13
2018-05-23T00:51:27.385Z,21.97
2018-05-23T00:53:53.599Z,19.30
2018-05-23T00:56:19.820Z,20.50
2018-05-23T00:58:46.035Z,20.27
2018-05-23T01:01:12.257Z,19.67
2018-05-23T01:03:39.381Z,20.50
2018-05-23T01:06:05.625Z,21.50
2018-05-23T01:08:31.851Z,24.30
2018-05-23T01:10:58.104Z,23.97
2018-05-23T01:13:24.340Z,22.30
2018-05-23T01:15:50.554Z,20.07
2018-05-23T01:18:16.764Z,20.60
2018-05-23T01:20:43.012Z,16.67
2018-05-23T01:23:09.255Z,18.80
2018-05-23T01:25:35.447Z,16.57
2018-05-23T01:28:01.640Z,14.97
2018-05-23T01:30:27.872Z,14.67
2018-05-23T01:32:54.089Z,15.03
2018-05-23T01:35:20.319Z,13.33
2018-05-23T01:37:46.537Z,14.70
2018-05-23T01:40:12.762Z,13.93
2018-05-23T01:42:39.360Z,14.27
2018-05-23T01:45:05.616Z,12.63
2018-05-23T01:47:31.835Z,12.03
2018-05-23T01:49:58.046Z,14.30
2018-05-23T01:52:24.295Z,12.90
2018-05-23T01:54:50.518Z,12.03
2018-05-23T01:57:16.770Z,10.43
2018-05-23T01:59:42.981Z,10.37
2018-05-23T02:02:09.174Z,10.10
2018-05-23T02:04:35.416Z,9.30
2018-05-23T02:07:01.624Z,9.63
2018-05-23T02:09:27.852Z,8.93
2018-05-23T02:11:54.099Z,8.43
2018-05-23T02:14:20.330Z,8.27
2018-05-23T02:16:46.575Z,11.20
2018-05-23T02:19:12.822Z,8.83
2018-05-23T02:21:39.399Z,8.10
2018-05-23T02:24:05.623Z,9.63
2018-05-23T02:26:32.544Z,8.77
2018-05-23T02:28:58.754Z,8.33
2018-05-23T02:31:24.989Z,9.07
2018-05-23T02:33:51.564Z,8.17
2018-05-23T02:36:17.813Z,9.23
2018-05-23T02:38:44.025Z,9.13
2018-05-23T02:41:11.239Z,8.30
2018-05-23T02:43:37.861Z,11.97
2018-05-23T02:46:05.051Z,14.23
2018-05-23T02:48:31.300Z,17.70
2018-05-23T02:50:57.509Z,16.43
2018-05-23T02:53:23.737Z,16.80
2018-05-23T02:55:49.959Z,16.03
2018-05-23T02:58:16.234Z,19.33
2018-05-23T03:00:42.474Z,19.10
2018-05-23T03:03:09.659Z,17.40
2018-05-23T03:05:35.935Z,17.40
2018-05-23T03:08:02.138Z,20.07
2018-05-23T03:10:28.364Z,19.83
2018-05-23T03:12:54.600Z,18.83
2018-05-23T03:15:20.843Z,19.53
2018-05-23T03:17:47.058Z,19.60
2018-05-23T03:20:13.270Z,20.77
2018-05-23T03:22:39.495Z,20.20
2018-05-23T03:25:05.713Z,19.10
2018-05-23T03:27:31.912Z,18.50
2018-05-23T03:29:58.175Z,19.00
2018-05-23T03:32:27.353Z,20.10
2018-05-23T03:34:53.956Z,18.87
2018-05-23T03:37:20.212Z,20.50
2018-05-23T03:39:46.782Z,18.20
2018-05-23T03:42:12.960Z,18.67
2018-05-23T03:44:39.178Z,17.87
2018-05-23T03:47:05.390Z,18.30
2018-05-23T03:49:31.592Z,18.37
2018-05-23T03:51:57.841Z,17.67
2018-05-23T03:54:24.057Z,17.40
2018-05-23T03:56:50.290Z,16.93
2018-05-23T03:59:16.569Z,17.50
2018-05-23T04:01:55.499Z,16.37
2018-05-23T04:04:33.919Z,16.07
2018-05-23T04:07:28.662Z,16.20
2018-05-23T04:09:54.882Z,16.50
2018-05-23T04:12:21.120Z,15.23
2018-05-23T04:14:47.361Z,16.67
2018-05-23T04:17:13.590Z,17.23
2018-05-23T04:19:39.801Z,16.80
2018-05-23T04:22:06.013Z,18.13
2018-05-23T04:24:32.748Z,16.27
2018-05-23T04:26:58.974Z,15.10
2018-05-23T04:29:25.218Z,16.47
2018-05-23T04:31:51.460Z,13.93
2018-05-23T04:34:17.693Z,15.60
2018-05-23T04:36:43.924Z,16.20
2018-05-23T04:39:10.139Z,15.00
2018-05-23T04:41:36.380Z,16.53
2018-05-23T04:44:02.623Z,15.10
2018-05-23T04:46:29.268Z,15.30
2018-05-23T04:48:55.856Z,16.30
2018-05-23T04:51:22.124Z,14.70
2018-05-23T04:53:48.336Z,17.03
2018-05-23T04:56:14.554Z,16.23
2018-05-23T04:58:40.784Z,16.00
2018-05-23T05:01:06.995Z,14.43
2018-05-23T05:03:33.852Z,14.60
2018-05-23T05:06:00.083Z,15.40
2018-05-23T05:08:26.294Z,16.53
2018-05-23T05:10:52.524Z,13.93
2018-05-23T05:13:18.788Z,15.27
2018-05-23T05:15:44.986Z,13.97
2018-05-23T05:18:11.200Z,15.70
2018-05-23T05:20:37.449Z,15.00
2018-05-23T05:23:03.691Z,14.93
2018-05-23T05:25:29.903Z,15.93
2018-05-23T05:27:56.144Z,14.93
2018-05-23T05:30:22.397Z,14.80
2018-05-23T05:32:49.013Z,13.93
2018-05-23T05:35:15.715Z,14.33
2018-05-23T05:37:41.958Z,14.40
2018-05-23T05:40:08.179Z,14.70
2018-05-23T05:42:34.433Z,14.10
2018-05-23T05:45:00.691Z,13.30
2018-05-23T05:47:26.898Z,15.20
2018-05-23T05:49:53.124Z,13.67
2018-05-23T05:52:19.385Z,13.40
2018-05-23T05:54:45.966Z,17.80
2018-05-23T05:57:12.211Z,16.60
2018-05-23T05:59:38.451Z,13.07
2018-05-23T06:02:11.905Z,14.60
2018-05-23T06:04:38.154Z,13.43
2018-05-23T06:07:04.384Z,14.13
2018-05-23T06:09:30.723Z,13.57
2018-05-23T06:11:57.289Z,13.07
2018-05-23T06:14:23.914Z,15.70
2018-05-23T06:16:50.126Z,14.67
2018-05-23T06:19:16.404Z,19.77
2018-05-23T06:21:42.598Z,19.70
2018-05-23T06:24:08.809Z,18.50
2018-05-23T06:26:35.110Z,19.10
2018-05-23T06:29:01.409Z,17.03
2018-05-23T06:31:27.630Z,17.20
2018-05-23T06:33:53.889Z,18.00
2018-05-23T06:36:21.012Z,22.13
2018-05-23T06:38:47.593Z,21.27
2018-05-23T06:41:13.981Z,24.90
2018-05-23T06:43:40.236Z,20.70
2018-05-23T06:46:06.531Z,20.40
2018-05-23T06:48:33.182Z,19.57
2018-05-23T06:50:59.420Z,19.93
2018-05-23T06:53:32.540Z,16.57
2018-05-23T06:55:58.815Z,14.77
2018-05-23T06:58:25.463Z,16.13
2018-05-23T07:00:52.097Z,16.53
2018-05-23T07:03:18.718Z,14.37
2018-05-23T07:05:45.037Z,13.60
2018-05-23T07:08:11.279Z,14.47
2018-05-23T07:10:37.532Z,16.40
2018-05-23T07:13:03.751Z,16.37
2018-05-23T07:15:30.036Z,17.70
2018-05-23T07:17:57.069Z,16.97
2018-05-23T07:20:23.257Z,18.17
2018-05-23T07:22:49.549Z,21.77
2018-05-23T07:25:16.151Z,23.60
2018-05-23T07:27:42.387Z,20.63
2018-05-23T07:30:08.649Z,17.87
2018-05-23T07:32:34.875Z,17.57
2018-05-23T07:35:01.224Z,13.70
2018-05-23T07:37:27.494Z,10.73
2018-05-23T07:39:53.750Z,10.60
2018-05-23T07:42:20.008Z,10.23
2018-05-23T07:44:46.248Z,9.73
2018-05-23T07:47:12.857Z,10.90
2018-05-23T07:49:39.081Z,10.50
2018-05-23T07:52:05.310Z,10.90
2018-05-23T07:54:31.528Z,10.10
2018-05-23T07:56:57.812Z,10.53
2018-05-23T07:59:24.030Z,10.57
2018-05-23T08:01:50.638Z,9.93
2018-05-23T08:04:16.951Z,10.37
2018-05-23T08:06:43.169Z,10.63
2018-05-23T08:09:09.400Z,10.20
2018-05-23T08:11:35.674Z,10.50
2018-05-23T08:14:01.892Z,12.03
2018-05-23T08:16:28.139Z,10.77
2018-05-23T08:18:54.409Z,11.70
2018-05-23T08:21:34.220Z,11.77
2018-05-23T08:24:00.521Z,14.73
2018-05-23T08:26:26.768Z,13.27
2018-05-23T08:28:53.015Z,17.40
2018-05-23T08:31:19.311Z,20.50
2018-05-23T08:33:45.583Z,20.37
2018-05-23T08:36:11.817Z,26.57
2018-05-23T08:38:38.046Z,27.23
2018-05-23T08:41:04.279Z,30.63
2018-05-23T08:43:31.317Z,32.30
2018-05-23T08:45:58.466Z,41.93
2018-05-23T08:48:24.672Z,40.80
2018-05-23T08:50:50.912Z,31.10
2018-05-23T08:53:17.130Z,26.90
2018-05-23T08:55:43.354Z,24.20
2018-05-23T08:58:09.668Z,21.30
2018-05-23T09:00:36.257Z,17.87
2018-05-23T09:03:02.587Z,26.37
2018-05-23T09:05:28.824Z,25.60
2018-05-23T09:07:55.033Z,22.80
2018-05-23T09:10:21.263Z,20.00
2018-05-23T09:12:47.462Z,20.07
2018-05-23T09:15:14.053Z,19.20
2018-05-23T09:17:40.287Z,17.73
2018-05-23T09:20:06.518Z,17.03
2018-05-23T09:22:32.794Z,15.60
2018-05-23T09:24:59.051Z,16.07
2018-05-23T09:27:25.256Z,16.33
2018-05-23T09:29:52.186Z,17.33
2018-05-23T09:32:18.489Z,16.43
2018-05-23T09:34:45.565Z,17.27
2018-05-23T09:37:42.766Z,16.23
2018-05-23T09:40:15.282Z,14.93
2018-05-23T09:55:50.732Z,12.90
2018-05-23T09:58:16.975Z,13.77
2018-05-23T10:00:43.190Z,14.57
2018-05-23T10:03:09.402Z,13.03
2018-05-23T10:05:36.018Z,13.43
2018-05-23T10:08:02.244Z,13.43
2018-05-23T10:10:28.469Z,12.70
2018-05-23T10:12:54.750Z,11.67
2018-05-23T10:15:20.973Z,11.00
2018-05-23T10:17:47.248Z,13.10
2018-05-23T10:20:13.499Z,13.30
2018-05-23T10:22:40.153Z,13.20
2018-05-23T10:25:06.766Z,11.33
2018-05-23T10:27:32.996Z,11.37
2018-05-23T10:32:32.096Z,13.30
2018-05-23T10:35:01.781Z,11.70
2018-05-23T10:37:28.024Z,12.90
2018-05-23T10:39:54.282Z,12.23
2018-05-23T10:42:20.505Z,12.70
2018-05-23T10:44:46.743Z,12.73
2018-05-23T10:47:13.376Z,13.37
2018-05-23T10:49:39.967Z,15.53
2018-05-23T10:52:06.241Z,12.57
2018-05-23T10:54:32.448Z,15.10
2018-05-23T10:56:58.688Z,13.97
2018-05-23T10:59:24.972Z,11.00
2018-05-23T11:01:51.861Z,11.73
2018-05-23T11:04:18.085Z,12.27
2018-05-23T11:06:44.317Z,11.67
2018-05-23T11:09:10.531Z,10.63
2018-05-23T11:11:36.784Z,8.80
2018-05-23T11:14:03.065Z,7.60
2018-05-23T11:16:29.296Z,9.30
2018-05-23T11:18:55.816Z,8.87
2018-05-23T11:21:22.075Z,9.03
2018-05-23T11:23:48.405Z,8.37
2018-05-23T11:26:14.733Z,8.77
2018-05-23T11:28:40.988Z,8.70
2018-05-23T11:31:07.232Z,9.37
2018-05-23T11:33:33.808Z,9.43
2018-05-23T11:36:00.110Z,10.07
2018-05-23T11:38:26.375Z,9.50
2018-05-23T11:40:52.642Z,8.60
2018-05-23T11:43:18.908Z,10.20
2018-05-23T11:45:45.189Z,10.10
2018-05-23T11:48:11.420Z,8.80
2018-05-23T11:50:37.629Z,11.03
2018-05-23T11:53:03.880Z,8.90
2018-05-23T11:55:30.131Z,9.33
2018-05-23T11:57:56.712Z,9.50
2018-05-23T12:00:22.958Z,10.43
2018-05-23T12:02:49.181Z,9.63
2018-05-23T12:05:15.414Z,8.63
2018-05-23T12:07:41.686Z,8.70
2018-05-23T12:10:07.904Z,10.30
2018-05-23T12:12:34.132Z,7.70
2018-05-23T12:15:00.747Z,9.70
2018-05-23T12:17:26.997Z,8.20
2018-05-23T12:19:53.637Z,8.37
2018-05-23T12:22:20.293Z,8.63
2018-05-23T12:24:46.533Z,9.70
2018-05-23T12:27:12.753Z,9.77
2018-05-23T12:29:40.041Z,9.53
2018-05-23T12:32:06.292Z,9.83
2018-05-23T12:34:32.511Z,9.60
2018-05-23T12:36:58.736Z,8.60
2018-05-23T12:39:24.969Z,10.07
2018-05-23T12:41:51.278Z,8.30
2018-05-23T12:44:17.471Z,8.70
2018-05-23T12:46:43.728Z,9.37
2018-05-23T12:49:09.940Z,9.30
2018-05-23T12:51:36.225Z,9.37
2018-05-23T12:54:02.483Z,8.87
2018-05-23T12:56:28.689Z,8.67
2018-05-23T12:58:55.333Z,8.77
2018-05-23T13:01:21.953Z,9.17
2018-05-23T13:03:48.235Z,8.47
2018-05-23T13:06:14.473Z,7.80
2018-05-23T13:08:40.755Z,8.10
2018-05-23T13:11:07.353Z,7.70
2018-05-23T13:13:33.607Z,8.53
2018-05-23T13:16:00.202Z,7.43
2018-05-23T13:18:26.430Z,6.73
2018-05-23T13:20:52.747Z,6.67
2018-05-23T13:23:18.955Z,6.43
2018-05-23T13:25:45.196Z,6.47
2018-05-23T13:28:11.826Z,6.90
2018-05-23T13:30:38.127Z,7.17
2018-05-23T13:33:04.741Z,6.60
2018-05-23T13:35:31.027Z,6.63
2018-05-23T13:37:57.249Z,5.73
2018-05-23T13:40:23.484Z,6.40
2018-05-23T13:42:49.787Z,6.83
2018-05-23T13:45:16.040Z,6.50
2018-05-23T13:47:42.921Z,6.10
2018-05-23T13:50:09.228Z,6.80
2018-05-23T13:52:35.500Z,6.27
2018-05-23T13:55:01.692Z,6.60
2018-05-23T13:57:27.931Z,7.00
2018-05-23T13:59:54.105Z,6.57
2018-05-23T14:02:20.663Z,6.10
2018-05-23T14:04:46.904Z,6.40
2018-05-23T14:07:13.928Z,5.40
2018-05-23T14:09:40.225Z,5.30
2018-05-23T14:12:06.471Z,6.63
2018-05-23T14:14:33.068Z,6.00
2018-05-23T14:16:59.310Z,6.63
2018-05-23T14:19:25.591Z,5.27
2018-05-23T14:21:51.895Z,5.83
2018-05-23T14:24:18.564Z,6.10
2018-05-23T14:26:44.870Z,5.27
2018-05-23T14:29:11.508Z,5.70
2018-05-23T14:31:39.188Z,5.97
2018-05-23T14:34:05.466Z,6.33
2018-05-23T14:36:31.729Z,5.83
2018-05-23T14:38:58.917Z,5.93
2018-05-23T14:41:25.177Z,5.53
2018-05-23T14:43:51.446Z,5.70
2018-05-23T14:46:17.795Z,4.90
2018-05-23T14:48:44.059Z,5.50
2018-05-23T14:51:10.307Z,6.00
2018-05-23T14:53:36.558Z,6.10
2018-05-23T14:56:03.968Z,6.10
2018-05-23T14:58:30.218Z,6.20
2018-05-23T15:00:56.475Z,5.07
2018-05-23T15:03:23.445Z,6.40
2018-05-23T15:05:49.707Z,6.20
2018-05-23T15:08:16.001Z,6.73
2018-05-23T15:10:42.600Z,6.63
2018-05-23T15:13:09.261Z,6.80
2018-05-23T15:15:35.779Z,8.60
2018-05-23T15:18:02.292Z,7.20
2018-05-23T15:20:28.551Z,6.30
2018-05-23T15:22:55.166Z,6.73
2018-05-23T15:25:21.490Z,6.07
2018-05-23T15:27:47.936Z,6.47
2018-05-23T15:30:14.214Z,6.37
2018-05-23T15:32:40.481Z,6.80
2018-05-23T15:35:06.745Z,6.30
2018-05-23T15:37:33.329Z,5.53
2018-05-23T15:39:59.538Z,6.30
2018-05-23T15:42:25.787Z,10.50
2018-05-23T15:44:59.097Z,6.10
2018-05-23T15:47:25.430Z,5.87
2018-05-23T15:49:52.040Z,5.90
2018-05-23T15:52:18.249Z,9.07
2018-05-23T15:54:44.536Z,6.80
2018-05-23T15:57:11.134Z,5.83
2018-05-23T15:59:37.701Z,6.67
2018-05-23T16:02:04.213Z,6.40
2018-05-23T16:04:30.479Z,6.07
2018-05-23T16:06:56.744Z,6.07
2018-05-23T16:09:23.053Z,5.80
2018-05-23T16:11:49.298Z,6.17
2018-05-23T16:14:15.515Z,5.87
2018-05-23T16:16:42.695Z,5.60
2018-05-23T16:19:08.922Z,5.93
2018-05-23T16:21:35.177Z,6.80
2018-05-23T16:24:01.480Z,7.70
2018-05-23T16:26:27.747Z,6.30
2018-05-23T16:28:54.340Z,6.90
2018-05-23T16:31:20.605Z,8.13
2018-05-23T16:33:46.833Z,6.67
2018-05-23T16:36:13.139Z,6.40
2018-05-23T16:38:39.337Z,7.40
2018-05-23T16:41:05.601Z,7.43
2018-05-23T16:43:32.653Z,7.83
2018-05-23T16:45:58.927Z,6.33
2018-05-23T16:48:25.222Z,6.63
2018-05-23T16:50:51.449Z,6.30
2018-05-23T16:53:17.670Z,6.93
2018-05-23T16:55:43.924Z,5.87
2018-05-23T16:58:10.580Z,6.53
2018-05-23T17:00:36.823Z,7.00
2018-05-23T17:03:03.089Z,6.87
2018-05-23T17:05:29.279Z,6.00
2018-05-23T17:07:55.511Z,7.07
2018-05-23T17:10:21.742Z,6.87
2018-05-23T17:12:48.015Z,6.30
2018-05-23T17:15:14.342Z,6.10
2018-05-23T17:17:40.610Z,5.40
2018-05-23T17:20:06.863Z,6.30
2018-05-23T17:22:34.087Z,6.60
2018-05-23T17:25:00.357Z,6.57
2018-05-23T17:27:26.687Z,5.80
2018-05-23T17:29:52.938Z,6.00
2018-05-23T17:32:19.275Z,6.87
2018-05-23T17:34:45.585Z,6.53
2018-05-23T17:37:11.856Z,6.53
2018-05-23T17:39:38.494Z,6.70
2018-05-23T17:42:05.109Z,5.70
2018-05-23T17:44:31.360Z,5.77
2018-05-23T17:46:58.051Z,5.33
2018-05-23T17:49:24.318Z,6.57
2018-05-23T17:51:50.550Z,5.53
2018-05-23T17:54:16.808Z,5.83
2018-05-23T17:56:43.058Z,7.00
2018-05-23T17:59:09.917Z,9.83
2018-05-23T18:01:36.129Z,7.80
2018-05-23T18:04:02.426Z,8.67
2018-05-23T18:06:29.901Z,9.03
2018-05-23T18:08:56.467Z,9.47
2018-05-23T18:11:22.784Z,8.30
2018-05-23T18:13:49.009Z,8.40
2018-05-23T18:16:15.277Z,9.17
2018-05-23T18:18:41.876Z,7.80
2018-05-23T18:21:08.181Z,8.90
2018-05-23T18:23:34.484Z,8.63
2018-05-23T18:26:01.089Z,8.83
2018-05-23T18:28:27.470Z,9.30
2018-05-23T18:30:53.631Z,8.87
2018-05-23T18:33:26.806Z,8.87
2018-05-23T18:35:53.039Z,7.73
2018-05-23T18:38:19.428Z,8.90
2018-05-23T18:40:46.082Z,8.70
2018-05-23T18:43:12.255Z,8.10
2018-05-23T18:45:38.579Z,8.00
2018-05-23T18:48:04.790Z,9.30
2018-05-23T18:50:31.025Z,11.03
2018-05-23T18:52:57.268Z,12.67
2018-05-23T18:55:23.457Z,12.00
2018-05-23T18:57:49.628Z,10.47
2018-05-23T19:00:15.870Z,7.33
2018-05-23T19:02:42.782Z,6.70
2018-05-23T19:05:09.102Z,7.77
2018-05-23T19:07:35.325Z,6.50
2018-05-23T19:10:01.574Z,6.70
2018-05-23T19:12:27.823Z,8.00
2018-05-23T19:14:54.081Z,10.40
2018-05-23T19:17:20.786Z,7.40
2018-05-23T19:19:47.173Z,6.60
2018-05-23T19:22:13.721Z,6.50
2018-05-23T19:24:40.008Z,7.33
2018-05-23T19:27:07.461Z,7.07
2018-05-23T19:29:33.743Z,7.63
2018-05-23T19:32:00.013Z,8.30
2018-05-23T19:34:26.242Z,8.53
2018-05-23T19:36:52.485Z,8.53
2018-05-23T19:39:20.088Z,8.93
2018-05-23T19:41:46.359Z,7.07
2018-05-23T19:44:12.616Z,11.57
2018-05-23T19:46:38.856Z,10.20
2018-05-23T19:49:06.054Z,11.40
2018-05-23T19:51:32.359Z,8.03
2018-05-23T19:53:58.998Z,9.27
2018-05-23T19:56:25.217Z,7.60
2018-05-23T19:58:51.499Z,8.43
2018-05-23T20:01:18.773Z,7.90
2018-05-23T20:03:45.068Z,7.77
2018-05-23T20:06:11.352Z,8.10
2018-05-23T20:08:37.640Z,8.10
2018-05-23T20:11:03.863Z,7.20
2018-05-23T20:13:30.141Z,7.27
2018-05-23T20:15:56.395Z,7.00
2018-05-23T20:18:22.621Z,6.40
2018-05-23T20:20:48.934Z,6.03
2018-05-23T20:23:15.126Z,6.47
2018-05-23T20:25:42.156Z,6.97
2018-05-23T20:28:08.430Z,6.73
2018-05-23T20:30:34.705Z,7.50
2018-05-23T20:33:00.987Z,6.83
2018-05-23T20:35:27.302Z,7.40
2018-05-23T20:37:53.524Z,7.10
2018-05-23T20:40:19.805Z,7.50
2018-05-23T20:42:46.057Z,7.20
2018-05-23T20:45:12.344Z,7.87
2018-05-23T20:47:38.599Z,7.00
2018-05-23T20:50:04.947Z,6.97
2018-05-23T20:52:31.327Z,6.90
2018-05-23T20:54:58.644Z,6.87
2018-05-23T20:57:25.255Z,6.17
2018-05-23T20:59:51.579Z,6.57
2018-05-23T21:02:17.763Z,7.23
2018-05-23T21:04:44.009Z,7.50
2018-05-23T21:07:10.257Z,7.97
2018-05-23T21:09:36.472Z,7.23
2018-05-23T21:12:02.738Z,13.70
2018-05-23T21:14:28.989Z,19.13
2018-05-23T21:16:55.260Z,21.40
2018-05-23T21:19:21.584Z,15.10
2018-05-23T21:21:47.736Z,12.47
2018-05-23T21:24:14.915Z,10.27
2018-05-23T21:26:41.189Z,12.37
2018-05-23T21:29:07.411Z,13.90
2018-05-23T21:31:33.685Z,13.83
2018-05-23T21:33:59.965Z,8.73
2018-05-23T21:36:26.183Z,8.63
2018-05-23T21:38:52.419Z,12.17
2018-05-23T21:41:18.669Z,34.10
2018-05-23T21:43:44.894Z,30.97
2018-05-23T21:46:11.106Z,46.30
2018-05-23T21:48:37.369Z,46.53
2018-05-23T21:51:03.590Z,34.83
2018-05-23T21:53:30.715Z,30.83
2018-05-23T21:56:03.773Z,16.00
2018-05-23T21:58:30.381Z,9.00
2018-05-23T22:00:56.657Z,8.20
2018-05-23T22:03:22.884Z,7.67
2018-05-23T22:05:49.201Z,8.73
2018-05-23T22:08:15.825Z,8.40
2018-05-23T22:10:42.062Z,8.63
2018-05-23T22:13:08.659Z,8.43
2018-05-23T22:15:34.882Z,7.50
2018-05-23T22:18:01.146Z,7.30
2018-05-23T22:20:27.608Z,6.87
2018-05-23T22:22:53.837Z,6.03
2018-05-23T22:25:20.054Z,6.23
2018-05-23T22:27:46.293Z,6.27
2018-05-23T22:30:12.597Z,6.10
2018-05-23T22:32:38.786Z,7.30
2018-05-23T22:35:05.037Z,6.97
2018-05-23T22:37:31.277Z,7.57
2018-05-23T22:39:57.911Z,7.30
2018-05-23T22:42:24.520Z,7.90
2018-05-23T22:44:50.739Z,7.60
2018-05-23T22:47:16.991Z,8.80
2018-05-23T22:49:43.196Z,8.50
2018-05-23T22:52:09.405Z,8.97
2018-05-23T22:54:35.665Z,10.00
2018-05-23T22:57:01.857Z,9.33
2018-05-23T22:59:28.091Z,9.90
2018-05-23T23:01:54.381Z,9.60
2018-05-23T23:04:20.978Z,9.33
2018-05-23T23:06:47.199Z,9.30
2018-05-23T23:09:13.452Z,9.10
2018-05-23T23:11:39.683Z,8.63
2018-05-23T23:14:05.883Z,9.27
2018-05-23T23:16:32.784Z,7.80
2018-05-23T23:18:59.099Z,11.03
2018-05-23T23:21:25.334Z,8.13
2018-05-23T23:23:51.940Z,7.30
2018-05-23T23:26:18.151Z,6.33
2018-05-23T23:28:44.355Z,5.07
2018-05-23T23:31:10.609Z,5.97
2018-05-23T23:33:36.815Z,5.70
2018-05-23T23:36:03.029Z,4.60
2018-05-23T23:38:29.267Z,4.53
2018-05-23T23:40:55.496Z,4.20
2018-05-23T23:43:21.741Z,4.43
2018-05-23T23:45:47.971Z,3.97
2018-05-23T23:48:14.184Z,4.80
2018-05-23T23:50:40.430Z,4.23
2018-05-23T23:53:06.635Z,4.37
2018-05-23T23:55:32.844Z,4.13
2018-05-23T23:57:59.123Z,3.83
